Time;durP1;ratioP1;P1;durP2;ratioP2;P2;SDS_P1;SDS_P2;PMS_P1;PMS_P2;Temp;Humidity;BMP_temperature;BMP_pressure;BME280_temperature;BME280_humidity;BME280_pressure;Samples;Min_cycle;Max_cycle;Signal;HPM_P1;HPM_P2
2023/12/29 00:00:22;;;;;;;62.97;41.60;;;;;;;5.77;64.03;95279.03;4190783;28;20075;-68
2023/12/29 00:02:24;;;;;;;60.22;41.25;;;;;;;5.56;65.81;95276.28;4184825;28;20573;-68
2023/12/29 00:04:26;;;;;;;63.30;39.60;;;;;;;5.60;65.84;95272.50;4191465;28;20067;-69
2023/12/29 00:06:28;;;;;;;48.92;32.35;;;;;;;5.46;64.88;95268.31;4196592;28;20045;-70
2023/12/29 00:08:31;;;;;;;40.38;27.30;;;;;;;5.10;65.90;95276.13;4179441;28;20077;-72
2023/12/29 00:10:33;;;;;;;36.42;23.80;;;;;;;4.75;67.04;95276.03;4191371;28;20370;-71
2023/12/29 00:12:35;;;;;;;40.55;25.08;;;;;;;4.65;68.11;95268.09;4189510;28;20045;-69
2023/12/29 00:14:39;;;;;;;44.28;25.42;;;;;;;4.58;67.67;95266.88;4191324;28;20506;-69
2023/12/29 00:16:41;;;;;;;;;;;;;;;4.72;68.32;95265.88;4182225;28;20511;-70
2023/12/29 00:18:43;;;;;;;44.63;29.48;;;;;;;4.91;67.44;95265.41;4189172;28;19999;-71
2023/12/29 00:20:45;;;;;;;43.97;31.00;;;;;;;5.12;66.98;95265.63;4189560;28;20470;-72
2023/12/29 00:22:47;;;;;;;48.38;31.30;;;;;;;5.27;66.64;95266.25;4171969;28;20527;-70
2023/12/29 00:24:49;;;;;;;48.50;31.55;;;;;;;5.42;65.75;95269.47;4186356;28;20049;-71
2023/12/29 00:26:51;;;;;;;44.60;30.83;;;;;;;5.55;65.61;95270.25;4185520;28;20142;-69
2023/12/29 00:28:54;;;;;;;45.78;30.70;;;;;;;5.63;64.74;95267.88;4188380;28;20048;-69
2023/12/29 00:30:56;;;;;;;45.42;30.27;;;;;;;5.69;65.25;95272.63;4190528;28;20136;-70
2023/12/29 00:33:04;;;;;;;51.60;34.78;;;;;;;5.70;64.75;95263.91;4188948;28;20135;-68
2023/12/29 00:35:06;;;;;;;58.67;37.63;;;;;;;5.71;64.46;95262.94;4190384;28;20598;-71
2023/12/29 00:37:08;;;;;;;53.00;35.20;;;;;;;5.70;64.75;95258.72;4187716;28;20296;-71
2023/12/29 00:39:11;;;;;;;59.00;36.50;;;;;;;5.72;64.44;95259.41;4182961;28;20060;-71
2023/12/29 00:41:12;;;;;;;55.40;36.35;;;;;;;5.64;64.81;95255.75;4187045;28;20816;-68
2023/12/29 00:43:14;;;;;;;60.17;35.47;;;;;;;5.71;65.12;95252.53;4189150;28;20076;-70
2023/12/29 00:45:16;;;;;;;49.13;33.40;;;;;;;5.70;64.40;95258.72;4182281;28;20150;-68
2023/12/29 00:47:19;;;;;;;45.03;30.20;;;;;;;5.72;64.97;95250.78;4183958;28;20103;-69
2023/12/29 00:49:21;;;;;;;50.90;30.17;;;;;;;5.70;64.57;95248.31;4191312;28;20049;-69
2023/12/29 00:51:23;;;;;;;46.95;30.38;;;;;;;5.64;64.67;95255.75;4193948;28;20135;-68
2023/12/29 00:53:25;;;;;;;48.90;31.17;;;;;;;5.63;64.97;95248.88;4191266;28;20082;-69
2023/12/29 00:55:26;;;;;;;48.53;31.58;;;;;;;5.67;64.23;95258.09;4190681;28;20393;-70
2023/12/29 00:57:28;;;;;;;50.80;30.98;;;;;;;5.69;64.56;95257.03;4193622;28;20051;-69
2023/12/29 00:59:30;;;;;;;55.92;33.22;;;;;;;5.65;64.08;95249.59;4193933;28;20048;-68
2023/12/29 01:01:35;;;;;;;55.95;33.53;;;;;;;5.67;64.50;95248.53;4188019;28;20064;-68
2023/12/29 01:03:37;;;;;;;56.80;35.53;;;;;;;5.72;64.21;95248.16;4188307;28;20119;-70
2023/12/29 01:05:39;;;;;;;55.35;35.78;;;;;;;5.72;64.32;95245.56;4190967;28;20052;-68
2023/12/29 01:07:41;;;;;;;55.92;35.22;;;;;;;5.73;64.03;95245.47;4194641;28;20052;-68
2023/12/29 01:09:43;;;;;;;49.90;34.90;;;;;;;5.76;64.02;95244.41;4184437;28;20147;-68
2023/12/29 01:11:45;;;;;;;52.65;33.40;;;;;;;5.72;64.23;95236.03;4174040;28;20168;-70
2023/12/29 01:13:47;;;;;;;53.63;33.53;;;;;;;5.65;64.66;95245.22;4170788;28;20204;-69
2023/12/29 01:15:49;;;;;;;52.88;34.58;;;;;;;5.67;64.86;95251.13;4186274;28;20446;-70
2023/12/29 01:17:51;;;;;;;51.50;34.70;;;;;;;5.61;64.25;95253.34;4185466;28;20157;-71
2023/12/29 01:19:53;;;;;;;49.83;36.22;;;;;;;5.48;64.24;95251.66;4187644;28;20099;-70
2023/12/29 01:21:55;;;;;;;54.30;33.92;;;;;;;5.08;65.70;95261.59;4183124;28;20053;-69
2023/12/29 01:23:57;;;;;;;57.20;36.20;;;;;;;4.74;66.46;95253.63;4190961;28;20143;-70
2023/12/29 01:25:58;;;;;;;52.53;33.72;;;;;;;4.59;67.75;95262.50;4191655;28;20059;-70
2023/12/29 01:28:00;;;;;;;53.65;36.15;;;;;;;4.53;68.63;95257.75;4184094;28;20059;-70
2023/12/29 01:30:02;;;;;;;53.63;37.33;;;;;;;4.04;69.51;95260.25;4192891;28;20174;-70
2023/12/29 01:32:07;;;;;;;58.17;40.97;;;;;;;3.87;70.60;95260.56;4190888;28;20780;-69
2023/12/29 01:34:09;;;;;;;58.08;38.88;;;;;;;4.10;70.73;95259.81;4191193;28;20534;-68
2023/12/29 01:36:18;;;;;;;60.28;43.47;;;;;;;4.29;69.22;95259.34;4204292;28;20048;-69
2023/12/29 01:38:25;;;;;;;;;;;;;;;4.56;68.39;95260.13;4198143;28;20139;-69
2023/12/29 01:40:27;;;;;;;75.45;50.35;;;;;;;4.76;68.51;95259.53;4192980;28;20283;-70
2023/12/29 01:42:29;;;;;;;76.25;52.58;;;;;;;4.76;66.88;95256.94;4193766;28;20052;-68
2023/12/29 01:44:32;;;;;;;83.88;55.72;;;;;;;4.58;68.05;95253.91;4194126;28;20052;-70
2023/12/29 01:46:34;;;;;;;82.47;56.67;;;;;;;4.63;68.25;95253.56;4190835;28;20207;-71
2023/12/29 01:48:36;;;;;;;78.53;51.88;;;;;;;4.73;67.86;95251.97;4193630;28;20083;-70
2023/12/29 01:50:40;;;;;;;67.72;48.17;;;;;;;4.80;67.77;95253.19;4193486;28;20453;-70
2023/12/29 01:52:44;;;;;;;76.13;51.53;;;;;;;4.89;67.07;95257.72;4193315;28;20076;-69
2023/12/29 01:54:49;;;;;;;73.63;49.17;;;;;;;5.02;67.35;95252.47;4190063;28;20077;-69
2023/12/29 01:56:54;;;;;;;73.03;51.05;;;;;;;5.11;66.33;95248.38;4192785;28;20040;-69
2023/12/29 01:58:56;;;;;;;76.85;53.80;;;;;;;5.14;66.59;95237.75;4186599;28;20055;-69
2023/12/29 02:01:11;;;;;;;83.45;57.70;;;;;;;5.18;66.07;95233.97;4180812;28;20053;-70
2023/12/29 02:03:15;;;;;;;76.45;54.30;;;;;;;5.23;66.15;95238.88;4175066;28;20046;-68
2023/12/29 02:05:18;;;;;;;83.68;54.80;;;;;;;5.20;66.20;95236.47;4180834;28;20132;-68
2023/12/29 02:07:20;;;;;;;74.40;53.28;;;;;;;5.22;66.29;95226.81;4185928;28;20044;-67
2023/12/29 02:09:22;;;;;;;74.18;51.03;;;;;;;5.25;66.61;95227.41;4190561;28;20056;-70
2023/12/29 02:11:24;;;;;;;72.88;49.72;;;;;;;5.27;65.57;95219.47;4191129;28;20054;-69
2023/12/29 02:13:26;;;;;;;73.97;49.40;;;;;;;5.30;65.77;95222.69;4192140;28;20082;-69
2023/12/29 02:15:28;;;;;;;69.88;48.75;;;;;;;5.32;65.67;95223.41;4189589;28;20303;-71
2023/12/29 02:17:36;;;;;;;72.00;49.55;;;;;;;5.26;65.43;95218.66;4185212;28;20091;-68
2023/12/29 02:19:40;;;;;;;69.15;49.55;;;;;;;5.29;65.42;95220.19;4168648;28;20528;-70
2023/12/29 02:21:42;;;;;;;71.75;49.00;;;;;;;5.22;65.38;95212.03;4187739;28;20081;-70
2023/12/29 02:23:44;;;;;;;63.60;46.17;;;;;;;5.15;65.81;95205.66;4187265;28;20457;-69
2023/12/29 02:25:46;;;;;;;59.30;43.33;;;;;;;5.13;66.24;95204.94;4190494;28;20056;-68
2023/12/29 02:28:17;;;;;;;60.40;41.35;;;;;;;5.05;65.88;95207.25;4171716;28;20100;-68
2023/12/29 02:30:30;;;;;;;59.70;39.53;;;;;;;5.03;66.16;95214.34;4176924;28;20079;-68
2023/12/29 02:32:33;;;;;;;54.15;35.35;;;;;;;5.01;66.69;95203.22;4193114;28;20577;-70
2023/12/29 02:34:36;;;;;;;48.90;33.60;;;;;;;4.80;66.71;95200.47;4175100;28;20053;-70
2023/12/29 02:36:42;;;;;;;45.40;33.43;;;;;;;4.69;67.29;95196.88;4175470;28;20059;-68
2023/12/29 02:38:44;;;;;;;50.45;34.22;;;;;;;4.71;67.75;95197.59;4190172;28;20535;-71
2023/12/29 02:40:46;;;;;;;53.63;35.78;;;;;;;4.77;67.29;95192.88;4171970;28;20135;-71
2023/12/29 02:42:49;;;;;;;51.50;35.92;;;;;;;4.74;67.53;95191.34;4182253;28;20359;-73
2023/12/29 02:44:51;;;;;;;48.93;35.07;;;;;;;4.71;66.90;95186.34;4190959;28;20044;-69
2023/12/29 02:46:53;;;;;;;51.00;35.58;;;;;;;4.73;67.54;95187.06;4193103;28;20704;-69
2023/12/29 02:48:55;;;;;;;49.20;35.10;;;;;;;4.68;67.01;95177.03;4192402;28;20447;-68
2023/12/29 02:50:57;;;;;;;51.42;36.78;;;;;;;4.71;66.80;95182.00;4182173;28;20049;-70
2023/12/29 02:52:59;;;;;;;64.85;41.78;;;;;;;4.63;67.33;95176.53;4190890;28;20135;-72
2023/12/29 02:55:00;;;;;;;57.47;38.17;;;;;;;4.61;67.50;95175.00;4189854;28;20465;-70
2023/12/29 02:57:02;;;;;;;51.17;35.88;;;;;;;4.69;67.66;95176.09;4195955;28;20044;-69
2023/12/29 02:59:04;;;;;;;50.13;35.50;;;;;;;4.72;67.02;95180.25;4188621;28;20071;-68
2023/12/29 03:01:06;;;;;;;52.00;36.95;;;;;;;4.72;67.47;95173.28;4190051;28;20428;-69
2023/12/29 03:03:08;;;;;;;66.78;46.00;;;;;;;4.51;67.06;95174.81;4171500;28;20144;-70
2023/12/29 03:05:10;;;;;;;63.50;45.05;;;;;;;4.42;68.01;95165.13;4193047;28;20148;-69
2023/12/29 03:07:12;;;;;;;82.82;58.67;;;;;;;4.16;68.15;95165.22;4192012;28;20063;-68
2023/12/29 03:09:14;;;;;;;103.45;68.40;;;;;;;4.02;69.14;95158.41;4174185;28;20041;-69
2023/12/29 03:11:16;;;;;;;99.13;71.38;;;;;;;4.04;69.39;95164.31;4191213;28;20067;-70
2023/12/29 03:13:17;;;;;;;105.45;74.22;;;;;;;4.19;69.67;95154.59;4191582;28;20159;-69
2023/12/29 03:15:19;;;;;;;108.82;74.10;;;;;;;4.34;68.93;95157.88;4167265;28;20068;-70
2023/12/29 03:17:21;;;;;;;98.97;70.38;;;;;;;4.40;68.02;95162.63;4191018;28;20064;-70
2023/12/29 03:19:23;;;;;;;97.22;66.38;;;;;;;4.48;68.12;95165.50;4192250;28;20056;-71
2023/12/29 03:21:25;;;;;;;96.63;68.47;;;;;;;4.51;67.98;95152.28;4190410;28;20096;-70
2023/12/29 03:23:27;;;;;;;99.00;67.63;;;;;;;4.54;67.96;95159.06;4188035;28;20177;-69
2023/12/29 03:25:29;;;;;;;108.55;74.18;;;;;;;4.56;67.85;95159.78;4191440;28;20407;-72
2023/12/29 03:27:31;;;;;;;95.03;65.78;;;;;;;4.65;67.25;95156.50;4186581;28;20139;-70
2023/12/29 03:29:33;;;;;;;98.43;64.78;;;;;;;4.69;67.56;95160.53;4185249;28;20136;-70
2023/12/29 03:31:35;;;;;;;86.00;60.38;;;;;;;4.77;66.46;95159.13;4190151;28;20084;-69
2023/12/29 03:33:37;;;;;;;80.82;54.97;;;;;;;4.81;66.04;95151.00;4189089;28;20049;-70
2023/12/29 03:35:39;;;;;;;79.07;53.83;;;;;;;4.85;66.10;95155.03;4191214;28;20044;-71
2023/12/29 03:37:40;;;;;;;84.20;59.05;;;;;;;4.85;66.39;95154.22;4190614;28;20077;-70
2023/12/29 03:39:43;;;;;;;82.53;56.35;;;;;;;4.84;66.73;95156.00;4189660;28;20163;-73
2023/12/29 03:41:45;;;;;;;73.53;53.53;;;;;;;4.86;66.49;95143.72;4190723;28;20044;-69
2023/12/29 03:43:47;;;;;;;72.18;50.17;;;;;;;4.87;66.47;95150.56;4186923;28;20076;-69
2023/12/29 03:45:49;;;;;;;67.72;48.42;;;;;;;4.86;66.49;95156.72;4191603;28;20052;-70
2023/12/29 03:47:51;;;;;;;82.90;51.63;;;;;;;4.84;66.10;95157.75;4190294;28;20080;-69
2023/12/29 03:49:53;;;;;;;75.00;50.90;;;;;;;4.38;66.84;95164.50;4192329;28;20483;-73
2023/12/29 03:51:55;;;;;;;77.53;56.17;;;;;;;3.84;66.88;95173.47;4186199;28;20139;-68
2023/12/29 03:53:58;;;;;;;83.78;55.28;;;;;;;3.81;68.10;95170.28;4191636;28;20110;-70
2023/12/29 03:56:07;;;;;;;82.80;57.90;;;;;;;3.73;68.70;95169.97;4182258;28;20462;-69
2023/12/29 03:58:10;;;;;;;84.38;56.13;;;;;;;3.65;69.15;95173.91;4173836;28;20110;-70
2023/12/29 04:00:13;;;;;;;86.28;61.53;;;;;;;3.52;69.31;95175.69;4191232;28;20048;-69
2023/12/29 04:02:17;;;;;;;85.75;59.45;;;;;;;3.53;70.01;95167.00;4191664;28;20114;-70
2023/12/29 04:04:19;;;;;;;85.38;58.58;;;;;;;3.66;69.88;95167.81;4191435;28;20079;-68
2023/12/29 04:06:21;;;;;;;75.47;55.38;;;;;;;3.85;69.42;95174.28;4193238;28;20055;-69
2023/12/29 04:08:23;;;;;;;79.57;54.58;;;;;;;3.98;68.79;95163.91;4182739;28;20068;-69
2023/12/29 04:10:25;;;;;;;77.40;55.22;;;;;;;4.12;68.31;95162.94;4189387;28;20510;-71
2023/12/29 04:12:26;;;;;;;81.32;56.15;;;;;;;4.18;68.17;95167.69;4187500;28;20132;-69
2023/12/29 04:14:28;;;;;;;80.50;55.70;;;;;;;4.18;68.10;95165.09;4185705;28;20045;-70
2023/12/29 04:16:30;;;;;;;81.38;54.42;;;;;;;4.28;67.89;95166.09;4189536;28;20079;-69
2023/12/29 04:18:32;;;;;;;72.13;52.70;;;;;;;4.31;67.52;95160.69;4177838;28;20475;-71
2023/12/29 04:20:34;;;;;;;79.22;54.83;;;;;;;4.31;67.13;95164.13;4191990;28;20064;-70
2023/12/29 04:22:36;;;;;;;74.10;54.88;;;;;;;4.29;67.25;95162.56;4189792;28;20288;-70
2023/12/29 04:24:38;;;;;;;74.88;52.83;;;;;;;4.46;69.21;95162.19;4188821;28;20157;-72
2023/12/29 04:26:40;;;;;;;81.00;55.13;;;;;;;4.57;68.13;95163.19;4194375;28;21736;-69
2023/12/29 04:28:42;;;;;;;73.53;52.35;;;;;;;4.59;67.12;95161.31;4193936;28;20055;-69
2023/12/29 04:30:44;;;;;;;75.68;53.10;;;;;;;4.59;66.86;95156.13;4188806;28;20135;-69
2023/12/29 04:32:46;;;;;;;78.30;53.83;;;;;;;4.59;66.13;95150.94;4192358;28;20051;-70
2023/12/29 04:34:48;;;;;;;73.30;52.45;;;;;;;4.58;66.30;95162.25;4192773;28;20419;-68
2023/12/29 04:36:50;;;;;;;82.82;54.80;;;;;;;4.56;66.82;95159.78;4187870;28;20336;-69
2023/12/29 04:38:52;;;;;;;81.82;58.15;;;;;;;4.44;65.87;95164.06;4194741;28;20049;-71
2023/12/29 04:40:53;;;;;;;76.75;55.95;;;;;;;4.39;66.79;95163.59;4190146;28;20049;-70
2023/12/29 04:42:55;;;;;;;74.43;54.22;;;;;;;4.40;66.71;95167.81;4188683;28;20086;-69
2023/12/29 04:44:57;;;;;;;72.03;52.00;;;;;;;4.31;66.79;95169.31;4184316;28;20100;-70
2023/12/29 04:46:59;;;;;;;66.43;44.13;;;;;;;4.24;66.65;95172.47;4191593;28;20041;-69
2023/12/29 04:49:01;;;;;;;65.60;48.28;;;;;;;4.13;67.47;95172.38;4189078;28;20041;-69
2023/12/29 04:51:03;;;;;;;72.10;49.70;;;;;;;4.15;67.31;95179.13;4187428;28;20083;-69
2023/12/29 04:53:05;;;;;;;70.05;47.88;;;;;;;4.15;67.85;95170.50;4187645;28;20152;-69
2023/12/29 04:55:07;;;;;;;78.32;51.90;;;;;;;4.16;67.43;95164.38;4186673;28;20105;-70
2023/12/29 04:57:09;;;;;;;72.57;52.05;;;;;;;4.14;67.50;95169.69;4183066;28;20475;-67
2023/12/29 04:59:11;;;;;;;79.38;53.65;;;;;;;4.16;67.18;95160.03;4175553;28;20541;-70
2023/12/29 05:01:13;;;;;;;67.85;50.72;;;;;;;4.22;67.59;95153.59;4182023;28;20056;-71
2023/12/29 05:03:15;;;;;;;65.13;48.10;;;;;;;4.29;66.85;95154.78;4174928;28;20387;-69
2023/12/29 05:05:17;;;;;;;67.50;46.63;;;;;;;4.36;66.96;95150.81;4195907;28;20048;-69
2023/12/29 05:07:19;;;;;;;64.00;46.75;;;;;;;4.41;66.45;95153.06;4192128;28;20066;-69
2023/12/29 05:09:21;;;;;;;62.08;46.80;;;;;;;4.45;66.20;95152.78;4176165;28;20045;-70
2023/12/29 05:11:22;;;;;;;62.58;45.58;;;;;;;4.51;66.50;95146.28;4192028;28;20060;-71
2023/12/29 05:13:24;;;;;;;75.38;49.70;;;;;;;4.49;66.34;95143.78;4193045;28;20098;-71
2023/12/29 05:15:26;;;;;;;63.92;46.08;;;;;;;4.48;66.10;95139.56;4184677;28;20095;-71
2023/12/29 05:17:28;;;;;;;65.22;45.53;;;;;;;4.45;66.79;95138.94;4186142;28;20049;-68
2023/12/29 05:19:30;;;;;;;68.38;51.00;;;;;;;4.44;66.52;95140.72;4186660;28;20502;-70
2023/12/29 05:21:32;;;;;;;72.45;51.25;;;;;;;4.39;65.74;95140.22;4182659;28;20045;-73
2023/12/29 05:23:33;;;;;;;73.10;53.70;;;;;;;4.39;66.84;95149.75;4184372;28;20501;-70
2023/12/29 05:25:35;;;;;;;75.18;51.83;;;;;;;3.86;67.45;95147.47;4182628;28;20049;-70
2023/12/29 05:27:37;;;;;;;75.07;53.45;;;;;;;3.64;68.71;95151.53;4188863;28;20041;-71
2023/12/29 05:29:40;;;;;;;73.93;55.13;;;;;;;3.62;69.50;95150.00;4184028;28;20052;-69
2023/12/29 05:31:42;;;;;;;84.25;58.40;;;;;;;3.55;69.63;95143.56;4174739;28;20513;-69
2023/12/29 05:33:44;;;;;;;94.63;61.33;;;;;;;3.54;69.55;95147.91;4168043;28;20041;-69
2023/12/29 05:35:46;;;;;;;93.30;62.95;;;;;;;3.58;69.40;95151.13;4174073;28;20172;-70
2023/12/29 05:37:49;;;;;;;93.38;63.75;;;;;;;3.62;69.67;95155.16;4189338;28;20602;-69
2023/12/29 05:39:51;;;;;;;103.63;70.47;;;;;;;3.77;68.81;95155.88;4192661;28;20097;-69
2023/12/29 05:41:53;;;;;;;96.85;67.18;;;;;;;3.86;68.83;95152.63;4185683;28;20042;-70
2023/12/29 05:43:57;;;;;;;94.85;67.22;;;;;;;3.84;68.47;95165.69;4186253;28;20080;-69
2023/12/29 05:46:00;;;;;;;102.25;68.57;;;;;;;3.82;68.27;95161.56;4187076;28;20110;-68
2023/12/29 05:48:02;;;;;;;104.03;68.32;;;;;;;3.83;68.44;95163.19;4188359;28;20053;-71
2023/12/29 05:50:04;;;;;;;103.97;66.22;;;;;;;3.84;68.32;95159.69;4190833;28;20422;-70
2023/12/29 05:52:06;;;;;;;93.22;64.35;;;;;;;3.87;68.29;95165.50;4188292;28;20044;-73
2023/12/29 05:54:08;;;;;;;91.13;60.78;;;;;;;3.94;68.27;95154.72;4193968;28;20507;-71
2023/12/29 05:56:14;;;;;;;89.65;63.05;;;;;;;4.03;67.51;95151.47;4187237;28;20065;-69
2023/12/29 05:58:16;;;;;;;91.00;62.42;;;;;;;4.04;67.15;95158.28;4172054;28;20037;-71
2023/12/29 06:00:18;;;;;;;90.10;64.28;;;;;;;4.03;67.10;95151.47;4193720;28;20479;-70
2023/12/29 06:02:20;;;;;;;96.22;64.40;;;;;;;3.99;67.21;95153.44;4193513;28;20379;-72
2023/12/29 06:04:22;;;;;;;92.22;64.35;;;;;;;3.99;68.15;95148.25;4192201;28;20053;-68
2023/12/29 06:06:24;;;;;;;93.63;64.50;;;;;;;3.99;67.40;95145.66;4186890;28;20052;-69
2023/12/29 06:08:26;;;;;;;93.30;65.35;;;;;;;3.98;67.41;95145.75;4188070;28;20052;-69
2023/12/29 06:10:27;;;;;;;88.10;61.40;;;;;;;4.02;66.92;95142.88;4179754;28;20052;-68
2023/12/29 06:12:29;;;;;;;89.78;63.25;;;;;;;4.07;67.32;95137.34;4180550;28;20041;-70
2023/12/29 06:14:31;;;;;;;91.10;61.83;;;;;;;4.09;67.21;95136.28;4185505;28;20052;-70
2023/12/29 06:16:33;;;;;;;87.90;62.75;;;;;;;4.12;66.34;95142.19;4190876;28;20137;-72
2023/12/29 06:18:35;;;;;;;96.90;64.40;;;;;;;4.10;66.83;95145.72;4174133;28;20049;-71
2023/12/29 06:20:37;;;;;;;97.15;63.28;;;;;;;4.05;66.79;95149.59;4185750;28;20044;-72
2023/12/29 06:22:40;;;;;;;93.05;62.55;;;;;;;4.06;67.46;95149.47;4186035;28;20511;-72
2023/12/29 06:24:42;;;;;;;87.95;64.28;;;;;;;4.03;66.68;95154.06;4192866;28;20584;-70
2023/12/29 06:26:44;;;;;;;92.70;65.00;;;;;;;4.01;66.95;95151.56;4190825;28;20450;-72
2023/12/29 06:28:47;;;;;;;98.35;66.53;;;;;;;3.89;66.51;95157.59;4183253;28;20037;-69
2023/12/29 06:30:49;;;;;;;99.25;69.05;;;;;;;3.83;67.09;95158.88;4193273;28;20513;-72
2023/12/29 06:32:51;;;;;;;90.10;63.55;;;;;;;3.76;67.07;95157.63;4189358;28;20102;-70
2023/12/29 06:34:53;;;;;;;97.13;65.18;;;;;;;3.68;68.24;95160.75;4171524;28;20151;-70
2023/12/29 06:36:55;;;;;;;91.32;64.28;;;;;;;4.16;67.94;95154.00;4192641;28;20048;-70
2023/12/29 06:38:57;;;;;;;90.03;63.17;;;;;;;4.84;66.59;95158.59;4193249;28;20086;-72
2023/12/29 06:41:03;;;;;;;96.68;67.22;;;;;;;5.54;63.77;95156.84;4182928;28;20056;-70
2023/12/29 06:43:05;;;;;;;85.90;58.53;;;;;;;5.93;61.96;95152.91;4190090;28;20464;-69
2023/12/29 06:45:08;;;;;;;83.10;57.15;;;;;;;6.22;61.29;95149.03;4192434;28;20406;-72
2023/12/29 06:47:11;;;;;;;83.28;57.65;;;;;;;6.14;60.46;95147.84;4190804;28;20056;-71
2023/12/29 06:49:13;;;;;;;85.18;57.60;;;;;;;6.08;60.43;95158.72;4173770;28;20045;-71
2023/12/29 06:51:18;;;;;;;83.88;59.28;;;;;;;5.97;60.61;95156.16;4184871;28;20059;-70
2023/12/29 06:53:20;;;;;;;87.90;59.67;;;;;;;5.79;61.27;95152.38;4188458;28;20106;-71
2023/12/29 06:55:22;;;;;;;88.30;58.90;;;;;;;5.77;61.73;95155.06;4192017;28;20089;-69
2023/12/29 06:57:24;;;;;;;88.30;60.70;;;;;;;5.51;62.20;95155.31;4192583;28;20040;-70
2023/12/29 06:59:26;;;;;;;123.38;75.03;;;;;;;5.45;62.19;95157.53;4192225;28;20240;-71
2023/12/29 07:01:31;;;;;;;105.05;68.43;;;;;;;5.04;62.62;95164.91;4192823;28;20070;-69
2023/12/29 07:03:33;;;;;;;107.50;66.80;;;;;;;4.93;63.81;95165.69;4186999;28;20053;-69
2023/12/29 07:05:35;;;;;;;102.72;69.55;;;;;;;4.58;64.26;95160.50;4199347;28;20044;-69
2023/12/29 07:07:39;;;;;;;110.30;69.28;;;;;;;4.45;64.98;95170.06;4174864;28;20045;-70
2023/12/29 07:09:49;;;;;;;100.00;68.10;;;;;;;4.56;65.87;95164.97;4219423;27;20430;-67
2023/12/29 07:11:51;;;;;;;100.95;68.97;;;;;;;4.69;65.18;95163.13;4223285;28;20044;-70
2023/12/29 07:13:52;;;;;;;99.43;66.68;;;;;;;4.88;64.63;95159.16;4222179;28;20964;-71
2023/12/29 07:15:55;;;;;;;95.78;63.28;;;;;;;5.04;64.95;95154.50;4220362;28;20465;-71
2023/12/29 07:17:57;;;;;;;93.32;64.55;;;;;;;5.23;63.62;95159.16;4214430;28;20062;-69
2023/12/29 07:20:00;;;;;;;90.18;62.00;;;;;;;5.29;63.38;95165.66;4214073;28;20051;-70
2023/12/29 07:22:05;;;;;;;98.05;66.32;;;;;;;5.35;62.91;95154.78;4220021;28;20056;-69
2023/12/29 07:24:07;;;;;;;98.10;64.78;;;;;;;5.29;63.73;95147.47;4221539;28;20043;-72
2023/12/29 07:26:09;;;;;;;96.57;62.45;;;;;;;5.24;63.15;95155.59;4221257;28;20135;-71
2023/12/29 07:28:11;;;;;;;99.45;65.85;;;;;;;5.08;63.47;95148.16;4208201;28;20055;-69
2023/12/29 07:30:14;;;;;;;100.40;67.28;;;;;;;5.05;64.27;95144.94;4218846;28;20048;-71
2023/12/29 07:32:16;;;;;;;100.40;67.45;;;;;;;5.15;64.28;95142.50;4211596;28;20058;-73
2023/12/29 07:34:17;;;;;;;99.35;66.72;;;;;;;5.25;63.79;95139.09;4218554;28;20443;-72
2023/12/29 07:36:20;;;;;;;100.15;64.75;;;;;;;5.39;63.92;95140.63;4221730;28;20505;-70
2023/12/29 07:38:22;;;;;;;90.47;63.58;;;;;;;5.59;63.81;95141.69;4216265;28;20048;-70
2023/12/29 07:40:23;;;;;;;87.65;59.40;;;;;;;5.69;63.39;95136.63;4213448;28;20112;-71
2023/12/29 07:42:25;;;;;;;96.72;66.25;;;;;;;5.74;63.12;95137.94;4211207;28;20074;-70
2023/12/29 07:44:27;;;;;;;88.30;60.70;;;;;;;5.92;63.24;95133.06;4208540;28;20048;-72
2023/12/29 07:46:29;;;;;;;93.93;63.95;;;;;;;6.07;62.48;95136.28;4212971;28;20367;-71
2023/12/29 07:48:31;;;;;;;91.18;63.80;;;;;;;6.23;61.91;95141.09;4214457;28;20438;-72
2023/12/29 07:50:33;;;;;;;101.68;67.57;;;;;;;6.17;61.30;95144.19;4213114;28;20132;-72
2023/12/29 07:52:35;;;;;;;97.63;65.05;;;;;;;6.13;61.90;95138.41;4219728;28;20044;-71
2023/12/29 07:54:37;;;;;;;100.72;66.57;;;;;;;6.04;61.36;95152.13;4218871;28;20044;-70
2023/12/29 07:56:39;;;;;;;103.05;71.55;;;;;;;5.85;61.52;95157.06;4217439;28;20052;-68
2023/12/29 07:58:41;;;;;;;111.05;74.82;;;;;;;5.87;62.83;95155.16;4212456;28;20424;-72
2023/12/29 08:00:47;;;;;;;101.63;68.65;;;;;;;6.04;62.05;95157.31;4211134;28;20135;-71
2023/12/29 08:02:50;;;;;;;105.00;70.78;;;;;;;6.19;61.51;95154.47;4194596;28;20048;-71
2023/12/29 08:04:51;;;;;;;108.32;71.50;;;;;;;6.35;62.70;95152.31;4213067;28;20478;-68
2023/12/29 08:06:53;;;;;;;104.63;69.68;;;;;;;6.60;64.06;95155.53;4212886;28;20048;-71
2023/12/29 08:08:55;;;;;;;99.07;67.97;;;;;;;6.82;63.91;95141.59;4213890;28;20064;-72
2023/12/29 08:10:57;;;;;;;93.80;64.85;;;;;;;7.00;61.88;95147.09;4207531;28;20051;-69
2023/12/29 08:12:59;;;;;;;108.57;69.28;;;;;;;7.08;60.86;95142.09;4209959;28;20478;-71
2023/12/29 08:15:02;;;;;;;96.47;66.15;;;;;;;6.99;59.93;95148.91;4209396;28;20049;-72
2023/12/29 08:17:04;;;;;;;98.38;65.30;;;;;;;6.70;60.75;95149.47;4210583;28;20146;-74
2023/12/29 08:19:06;;;;;;;111.43;69.72;;;;;;;6.63;61.32;95153.53;4208302;28;20130;-70
2023/12/29 08:21:08;;;;;;;102.60;68.75;;;;;;;6.39;61.73;95152.88;4209274;28;20399;-69
2023/12/29 08:23:10;;;;;;;96.28;68.07;;;;;;;6.25;62.09;95148.78;4208878;28;20428;-70
2023/12/29 08:25:12;;;;;;;94.78;66.47;;;;;;;6.42;62.15;95148.25;4199880;28;20044;-73
2023/12/29 08:27:14;;;;;;;94.47;65.82;;;;;;;6.44;61.54;95148.16;4208595;28;20131;-72
2023/12/29 08:29:16;;;;;;;96.82;64.47;;;;;;;6.45;61.94;95150.59;4203503;28;20063;-70
2023/12/29 08:31:19;;;;;;;97.15;65.15;;;;;;;6.27;61.95;95147.72;4206053;28;20413;-70
2023/12/29 08:33:21;;;;;;;94.03;66.00;;;;;;;6.15;61.95;95146.91;4195623;28;20048;-71
2023/12/29 08:35:22;;;;;;;102.18;68.55;;;;;;;5.95;61.57;95158.03;4206423;28;20109;-72
2023/12/29 08:37:24;;;;;;;106.72;69.93;;;;;;;6.00;61.99;95155.94;4207454;28;20493;-71
2023/12/29 08:39:26;;;;;;;117.05;72.38;;;;;;;5.83;60.74;95156.34;4203810;28;20048;-72
2023/12/29 08:41:28;;;;;;;114.88;68.97;;;;;;;6.02;60.91;95161.81;4197966;28;20443;-72
2023/12/29 08:43:30;;;;;;;104.30;68.75;;;;;;;6.01;60.00;95156.75;4204502;28;20072;-72
2023/12/29 08:45:32;;;;;;;105.40;69.15;;;;;;;5.85;60.58;95157.91;4199648;28;20131;-71
2023/12/29 08:47:34;;;;;;;116.60;70.15;;;;;;;5.95;60.98;95168.44;4206911;28;20063;-70
2023/12/29 08:49:37;;;;;;;105.88;67.78;;;;;;;6.20;60.44;95162.16;4208124;28;20077;-72
2023/12/29 08:51:39;;;;;;;111.47;67.65;;;;;;;6.41;59.84;95158.78;4204703;28;20072;-73
2023/12/29 08:53:41;;;;;;;116.15;67.53;;;;;;;6.72;59.51;95151.97;4204525;28;20040;-70
2023/12/29 08:55:43;;;;;;;99.28;64.63;;;;;;;7.01;59.00;95156.56;4198087;28;20044;-70
2023/12/29 08:57:44;;;;;;;101.80;63.50;;;;;;;7.12;58.61;95161.72;4198288;28;20129;-71
2023/12/29 08:59:48;;;;;;;100.82;63.72;;;;;;;7.09;58.32;95154.16;4200377;28;20040;-71
2023/12/29 09:01:50;;;;;;;98.65;64.38;;;;;;;7.22;57.87;95154.78;4198677;28;20052;-71
2023/12/29 09:03:51;;;;;;;104.57;63.10;;;;;;;7.31;57.15;95163.63;4209247;28;20045;-70
2023/12/29 09:05:54;;;;;;;95.07;62.63;;;;;;;7.48;58.07;95160.44;4197029;28;20059;-72
2023/12/29 09:07:56;;;;;;;107.63;63.25;;;;;;;7.51;57.86;95159.38;4200586;28;20461;-71
2023/12/29 09:09:59;;;;;;;88.40;62.50;;;;;;;7.60;57.51;95158.59;4200745;28;20150;-71
2023/12/29 09:12:01;;;;;;;97.50;60.40;;;;;;;7.76;57.47;95153.72;4200942;28;20401;-70
2023/12/29 09:14:03;;;;;;;84.22;57.45;;;;;;;7.97;57.23;95153.66;4203098;28;20473;-71
2023/12/29 09:16:06;;;;;;;89.32;56.58;;;;;;;8.18;56.85;95158.81;4206194;28;20564;-72
2023/12/29 09:18:08;;;;;;;93.88;59.95;;;;;;;8.30;56.16;95150.88;4207607;28;20075;-72
2023/12/29 09:20:10;;;;;;;87.63;57.42;;;;;;;8.24;56.19;95146.19;4202510;28;20055;-73
2023/12/29 09:22:12;;;;;;;83.90;56.08;;;;;;;8.31;56.64;95145.53;4210395;28;20502;-71
2023/12/29 09:24:14;;;;;;;76.70;52.03;;;;;;;8.48;56.35;95135.44;4202596;28;20048;-71
2023/12/29 09:26:16;;;;;;;80.80;52.80;;;;;;;8.66;56.13;95141.63;4198553;28;20052;-71
2023/12/29 09:28:19;;;;;;;77.20;52.03;;;;;;;8.90;55.77;95122.91;4195330;28;20056;-71